sensor_id;sensor_type;location;lat;lon;timestamp;temperature;humidity
1806;DHT22;901;48.142;11.516;2023-08-24T00:00:22;24.30;99.90
1806;DHT22;901;48.142;11.516;2023-08-24T00:02:49;24.30;99.90
1806;DHT22;901;48.142;11.516;2023-08-24T00:05:16;24.20;99.90
1806;DHT22;901;48.142;11.516;2023-08-24T00:07:43;24.20;99.90
1806;DHT22;901;48.142;11.516;2023-08-24T00:10:10;24.20;99.90
1806;DHT22;901;48.142;11.516;2023-08-24T00:12:37;24.20;99.90
1806;DHT22;901;48.142;11.516;2023-08-24T00:15:08;24.20;99.90
1806;DHT22;901;48.142;11.516;2023-08-24T00:17:36;24.20;99.90
1806;DHT22;901;48.142;11.516;2023-08-24T00:20:05;24.20;99.90
1806;DHT22;901;48.142;11.516;2023-08-24T00:22:36;24.20;99.90
1806;DHT22;901;48.142;11.516;2023-08-24T00:25:04;24.20;99.90
1806;DHT22;901;48.142;11.516;2023-08-24T00:27:31;24.20;99.90
1806;DHT22;901;48.142;11.516;2023-08-24T00:29:58;24.20;99.90
1806;DHT22;901;48.142;11.516;2023-08-24T00:32:27;24.20;99.90
1806;DHT22;901;48.142;11.516;2023-08-24T00:34:55;24.30;99.90
1806;DHT22;901;48.142;11.516;2023-08-24T00:37:22;24.40;99.90
1806;DHT22;901;48.142;11.516;2023-08-24T00:39:49;24.40;99.90
1806;DHT22;901;48.142;11.516;2023-08-24T00:42:16;24.40;99.90
1806;DHT22;901;48.142;11.516;2023-08-24T00:44:42;24.40;99.90
1806;DHT22;901;48.142;11.516;2023-08-24T00:47:10;24.50;99.90
1806;DHT22;901;48.142;11.516;2023-08-24T00:49:38;24.50;99.90
1806;DHT22;901;48.142;11.516;2023-08-24T00:52:06;24.50;99.90
1806;DHT22;901;48.142;11.516;2023-08-24T00:54:33;24.50;99.90
1806;DHT22;901;48.142;11.516;2023-08-24T00:57:00;24.60;99.90
1806;DHT22;901;48.142;11.516;2023-08-24T00:59:27;24.60;99.90
1806;DHT22;901;48.142;11.516;2023-08-24T01:01:55;24.60;99.90
1806;DHT22;901;48.142;11.516;2023-08-24T01:04:23;24.60;99.90
1806;DHT22;901;48.142;11.516;2023-08-24T01:06:51;24.70;99.90
1806;DHT22;901;48.142;11.516;2023-08-24T01:09:18;24.80;99.90
1806;DHT22;901;48.142;11.516;2023-08-24T01:11:52;24.90;99.90
1806;DHT22;901;48.142;11.516;2023-08-24T01:14:33;25.00;99.90
1806;DHT22;901;48.142;11.516;2023-08-24T01:17:04;25.10;99.90
1806;DHT22;901;48.142;11.516;2023-08-24T01:19:38;25.00;99.90
1806;DHT22;901;48.142;11.516;2023-08-24T01:22:18;25.10;99.90
1806;DHT22;901;48.142;11.516;2023-08-24T01:24:50;25.00;99.90
1806;DHT22;901;48.142;11.516;2023-08-24T01:27:21;24.90;99.90
1806;DHT22;901;48.142;11.516;2023-08-24T01:29:49;24.80;99.90
1806;DHT22;901;48.142;11.516;2023-08-24T01:32:18;24.80;99.90
1806;DHT22;901;48.142;11.516;2023-08-24T01:34:45;24.80;99.90
1806;DHT22;901;48.142;11.516;2023-08-24T01:37:11;24.60;99.90
1806;DHT22;901;48.142;11.516;2023-08-24T01:39:43;24.50;99.90
1806;DHT22;901;48.142;11.516;2023-08-24T01:42:19;24.50;99.90
1806;DHT22;901;48.142;11.516;2023-08-24T01:44:51;24.50;99.90
1806;DHT22;901;48.142;11.516;2023-08-24T01:47:19;24.50;99.90
1806;DHT22;901;48.142;11.516;2023-08-24T01:49:48;24.30;99.90
1806;DHT22;901;48.142;11.516;2023-08-24T01:52:16;24.40;99.90
1806;DHT22;901;48.142;11.516;2023-08-24T01:54:43;24.40;99.90
1806;DHT22;901;48.142;11.516;2023-08-24T01:57:10;24.40;99.90
1806;DHT22;901;48.142;11.516;2023-08-24T01:59:37;24.50;99.90
1806;DHT22;901;48.142;11.516;2023-08-24T02:02:06;24.40;99.90
1806;DHT22;901;48.142;11.516;2023-08-24T02:04:33;24.40;99.90
1806;DHT22;901;48.142;11.516;2023-08-24T02:07:00;24.50;99.90
1806;DHT22;901;48.142;11.516;2023-08-24T02:09:27;24.50;99.90
1806;DHT22;901;48.142;11.516;2023-08-24T02:11:54;24.50;99.90
1806;DHT22;901;48.142;11.516;2023-08-24T02:14:21;24.50;99.90
1806;DHT22;901;48.142;11.516;2023-08-24T02:16:47;24.50;99.90
1806;DHT22;901;48.142;11.516;2023-08-24T02:19:16;24.40;99.90
1806;DHT22;901;48.142;11.516;2023-08-24T02:21:42;24.30;99.90
1806;DHT22;901;48.142;11.516;2023-08-24T02:24:09;24.30;99.90
1806;DHT22;901;48.142;11.516;2023-08-24T02:26:36;24.30;99.90
1806;DHT22;901;48.142;11.516;2023-08-24T02:29:03;24.30;99.90
1806;DHT22;901;48.142;11.516;2023-08-24T02:31:30;24.30;99.90
1806;DHT22;901;48.142;11.516;2023-08-24T02:33:57;24.30;99.90
1806;DHT22;901;48.142;11.516;2023-08-24T02:36:25;24.30;99.90
1806;DHT22;901;48.142;11.516;2023-08-24T02:38:53;24.30;99.90
1806;DHT22;901;48.142;11.516;2023-08-24T02:41:20;24.30;99.90
1806;DHT22;901;48.142;11.516;2023-08-24T02:43:47;24.30;99.90
1806;DHT22;901;48.142;11.516;2023-08-24T02:46:14;24.20;99.90
1806;DHT22;901;48.142;11.516;2023-08-24T02:48:41;24.10;99.90
1806;DHT22;901;48.142;11.516;2023-08-24T02:51:08;24.10;99.90
1806;DHT22;901;48.142;11.516;2023-08-24T02:53:36;24.00;99.90
1806;DHT22;901;48.142;11.516;2023-08-24T02:56:03;23.90;99.90
1806;DHT22;901;48.142;11.516;2023-08-24T02:58:30;23.90;99.90
1806;DHT22;901;48.142;11.516;2023-08-24T03:00:57;23.80;99.90
1806;DHT22;901;48.142;11.516;2023-08-24T03:03:24;23.80;99.90
1806;DHT22;901;48.142;11.516;2023-08-24T03:05:55;23.80;99.90
1806;DHT22;901;48.142;11.516;2023-08-24T03:08:22;23.70;99.90
1806;DHT22;901;48.142;11.516;2023-08-24T03:10:50;23.80;99.90
1806;DHT22;901;48.142;11.516;2023-08-24T03:13:17;23.80;99.90
1806;DHT22;901;48.142;11.516;2023-08-24T03:15:44;23.70;99.90
1806;DHT22;901;48.142;11.516;2023-08-24T03:18:12;23.70;99.90
1806;DHT22;901;48.142;11.516;2023-08-24T03:20:40;23.70;99.90
1806;DHT22;901;48.142;11.516;2023-08-24T03:23:07;23.80;99.90
1806;DHT22;901;48.142;11.516;2023-08-24T03:25:36;23.80;99.90
1806;DHT22;901;48.142;11.516;2023-08-24T03:28:05;23.80;99.90
1806;DHT22;901;48.142;11.516;2023-08-24T03:30:33;23.80;99.90
1806;DHT22;901;48.142;11.516;2023-08-24T03:33:00;23.80;99.90
1806;DHT22;901;48.142;11.516;2023-08-24T03:35:28;23.80;99.90
1806;DHT22;901;48.142;11.516;2023-08-24T03:37:55;23.70;99.90
1806;DHT22;901;48.142;11.516;2023-08-24T03:40:22;23.60;99.90
1806;DHT22;901;48.142;11.516;2023-08-24T03:42:49;23.60;99.90
1806;DHT22;901;48.142;11.516;2023-08-24T03:45:17;23.50;99.90
1806;DHT22;901;48.142;11.516;2023-08-24T03:47:44;23.50;99.90
1806;DHT22;901;48.142;11.516;2023-08-24T03:50:11;23.50;99.90
1806;DHT22;901;48.142;11.516;2023-08-24T03:52:38;23.40;99.90
1806;DHT22;901;48.142;11.516;2023-08-24T03:55:06;23.50;99.90
1806;DHT22;901;48.142;11.516;2023-08-24T03:57:33;23.50;99.90
1806;DHT22;901;48.142;11.516;2023-08-24T04:00:00;23.50;99.90
1806;DHT22;901;48.142;11.516;2023-08-24T04:02:31;23.50;99.90
1806;DHT22;901;48.142;11.516;2023-08-24T04:04:58;23.40;99.90
1806;DHT22;901;48.142;11.516;2023-08-24T04:07:25;23.40;99.90
1806;DHT22;901;48.142;11.516;2023-08-24T04:09:51;23.40;99.90
1806;DHT22;901;48.142;11.516;2023-08-24T04:12:18;23.40;99.90
1806;DHT22;901;48.142;11.516;2023-08-24T04:14:45;23.40;99.90
1806;DHT22;901;48.142;11.516;2023-08-24T04:17:12;23.40;99.90
1806;DHT22;901;48.142;11.516;2023-08-24T04:19:41;23.40;99.90
1806;DHT22;901;48.142;11.516;2023-08-24T04:22:07;23.30;99.90
1806;DHT22;901;48.142;11.516;2023-08-24T04:24:34;23.30;99.90
1806;DHT22;901;48.142;11.516;2023-08-24T04:27:01;23.40;99.90
1806;DHT22;901;48.142;11.516;2023-08-24T04:29:28;23.40;99.90
1806;DHT22;901;48.142;11.516;2023-08-24T04:31:55;23.30;99.90
1806;DHT22;901;48.142;11.516;2023-08-24T04:34:21;23.40;99.90
1806;DHT22;901;48.142;11.516;2023-08-24T04:36:50;23.30;99.90
1806;DHT22;901;48.142;11.516;2023-08-24T04:39:16;23.30;99.90
1806;DHT22;901;48.142;11.516;2023-08-24T04:41:44;23.30;99.90
1806;DHT22;901;48.142;11.516;2023-08-24T04:44:11;23.30;99.90
1806;DHT22;901;48.142;11.516;2023-08-24T04:46:38;23.30;99.90
1806;DHT22;901;48.142;11.516;2023-08-24T04:49:04;23.30;99.90
1806;DHT22;901;48.142;11.516;2023-08-24T04:51:32;23.30;99.90
1806;DHT22;901;48.142;11.516;2023-08-24T04:54:00;23.30;99.90
1806;DHT22;901;48.142;11.516;2023-08-24T04:56:28;23.40;99.90
1806;DHT22;901;48.142;11.516;2023-08-24T04:58:55;23.40;99.90
1806;DHT22;901;48.142;11.516;2023-08-24T05:01:23;23.50;99.90
1806;DHT22;901;48.142;11.516;2023-08-24T05:03:50;23.50;99.90
1806;DHT22;901;48.142;11.516;2023-08-24T05:06:18;23.50;99.90
1806;DHT22;901;48.142;11.516;2023-08-24T05:08:45;23.50;99.90
1806;DHT22;901;48.142;11.516;2023-08-24T05:11:13;23.50;99.90
1806;DHT22;901;48.142;11.516;2023-08-24T05:13:40;23.50;99.90
1806;DHT22;901;48.142;11.516;2023-08-24T05:16:08;23.60;99.90
1806;DHT22;901;48.142;11.516;2023-08-24T05:18:35;23.70;99.90
1806;DHT22;901;48.142;11.516;2023-08-24T05:21:02;23.80;99.90
1806;DHT22;901;48.142;11.516;2023-08-24T05:23:29;24.10;99.90
1806;DHT22;901;48.142;11.516;2023-08-24T05:25:56;24.20;99.90
1806;DHT22;901;48.142;11.516;2023-08-24T05:28:25;24.50;99.90
1806;DHT22;901;48.142;11.516;2023-08-24T05:30:52;24.80;99.90
1806;DHT22;901;48.142;11.516;2023-08-24T05:33:20;24.90;99.90
1806;DHT22;901;48.142;11.516;2023-08-24T05:35:47;25.10;99.90
1806;DHT22;901;48.142;11.516;2023-08-24T05:38:14;25.30;99.90
1806;DHT22;901;48.142;11.516;2023-08-24T05:40:42;25.30;99.90
1806;DHT22;901;48.142;11.516;2023-08-24T05:43:09;25.30;99.90
1806;DHT22;901;48.142;11.516;2023-08-24T05:45:37;25.50;99.90
1806;DHT22;901;48.142;11.516;2023-08-24T05:48:06;25.70;99.90
1806;DHT22;901;48.142;11.516;2023-08-24T05:50:32;25.70;99.90
1806;DHT22;901;48.142;11.516;2023-08-24T05:52:59;25.80;99.90
1806;DHT22;901;48.142;11.516;2023-08-24T05:55:26;25.90;99.90
1806;DHT22;901;48.142;11.516;2023-08-24T05:57:53;25.90;99.90
1806;DHT22;901;48.142;11.516;2023-08-24T06:00:20;25.90;99.90
1806;DHT22;901;48.142;11.516;2023-08-24T06:02:49;26.10;99.90
1806;DHT22;901;48.142;11.516;2023-08-24T06:05:16;26.30;99.90
1806;DHT22;901;48.142;11.516;2023-08-24T06:07:43;26.30;99.90
1806;DHT22;901;48.142;11.516;2023-08-24T06:10:11;26.40;99.90
1806;DHT22;901;48.142;11.516;2023-08-24T06:12:38;26.50;99.90
1806;DHT22;901;48.142;11.516;2023-08-24T06:15:06;26.60;99.90
1806;DHT22;901;48.142;11.516;2023-08-24T06:17:35;26.60;99.90
1806;DHT22;901;48.142;11.516;2023-08-24T06:20:04;26.50;99.90
1806;DHT22;901;48.142;11.516;2023-08-24T06:22:31;26.60;99.90
1806;DHT22;901;48.142;11.516;2023-08-24T06:24:58;26.60;99.90
1806;DHT22;901;48.142;11.516;2023-08-24T06:27:25;26.60;99.90
1806;DHT22;901;48.142;11.516;2023-08-24T06:29:52;26.60;99.90
1806;DHT22;901;48.142;11.516;2023-08-24T06:32:19;26.70;99.90
1806;DHT22;901;48.142;11.516;2023-08-24T06:34:46;26.80;99.90
1806;DHT22;901;48.142;11.516;2023-08-24T06:37:14;26.80;99.90
1806;DHT22;901;48.142;11.516;2023-08-24T06:39:41;26.80;99.90
1806;DHT22;901;48.142;11.516;2023-08-24T06:42:08;26.90;99.90
1806;DHT22;901;48.142;11.516;2023-08-24T06:44:35;27.00;99.90
1806;DHT22;901;48.142;11.516;2023-08-24T06:47:02;27.20;99.90
1806;DHT22;901;48.142;11.516;2023-08-24T06:49:29;27.20;99.90
1806;DHT22;901;48.142;11.516;2023-08-24T06:51:56;27.30;99.90
1806;DHT22;901;48.142;11.516;2023-08-24T06:54:24;27.50;99.90
1806;DHT22;901;48.142;11.516;2023-08-24T06:56:51;27.60;99.90
1806;DHT22;901;48.142;11.516;2023-08-24T06:59:17;27.70;99.90
1806;DHT22;901;48.142;11.516;2023-08-24T07:01:44;27.80;99.90
1806;DHT22;901;48.142;11.516;2023-08-24T07:04:12;27.90;99.90
1806;DHT22;901;48.142;11.516;2023-08-24T07:06:39;28.00;99.90
1806;DHT22;901;48.142;11.516;2023-08-24T07:09:08;28.10;99.90
1806;DHT22;901;48.142;11.516;2023-08-24T07:11:36;28.10;99.90
1806;DHT22;901;48.142;11.516;2023-08-24T07:14:03;28.10;99.90
1806;DHT22;901;48.142;11.516;2023-08-24T07:16:30;27.90;99.90
1806;DHT22;901;48.142;11.516;2023-08-24T07:18:57;27.90;99.90
1806;DHT22;901;48.142;11.516;2023-08-24T07:21:24;28.00;99.90
1806;DHT22;901;48.142;11.516;2023-08-24T07:23:51;27.90;99.90
1806;DHT22;901;48.142;11.516;2023-08-24T07:26:18;28.00;99.90
1806;DHT22;901;48.142;11.516;2023-08-24T07:28:46;28.00;99.90
1806;DHT22;901;48.142;11.516;2023-08-24T07:31:13;28.10;99.90
1806;DHT22;901;48.142;11.516;2023-08-24T07:33:40;28.20;99.90
1806;DHT22;901;48.142;11.516;2023-08-24T07:36:09;28.40;99.90
1806;DHT22;901;48.142;11.516;2023-08-24T07:38:36;28.50;99.90
1806;DHT22;901;48.142;11.516;2023-08-24T07:41:03;28.60;99.90
1806;DHT22;901;48.142;11.516;2023-08-24T07:43:31;28.60;99.90
1806;DHT22;901;48.142;11.516;2023-08-24T07:46:00;28.70;99.90
1806;DHT22;901;48.142;11.516;2023-08-24T07:48:27;28.70;99.90
1806;DHT22;901;48.142;11.516;2023-08-24T07:50:54;28.70;99.90
1806;DHT22;901;48.142;11.516;2023-08-24T07:53:22;28.80;99.90
1806;DHT22;901;48.142;11.516;2023-08-24T07:55:48;28.90;99.90
1806;DHT22;901;48.142;11.516;2023-08-24T07:58:15;28.90;99.90
1806;DHT22;901;48.142;11.516;2023-08-24T08:00:42;29.10;99.90
1806;DHT22;901;48.142;11.516;2023-08-24T08:03:10;29.10;99.90
1806;DHT22;901;48.142;11.516;2023-08-24T08:05:37;29.20;99.90
1806;DHT22;901;48.142;11.516;2023-08-24T08:08:05;29.10;99.90
1806;DHT22;901;48.142;11.516;2023-08-24T08:10:31;29.20;99.90
1806;DHT22;901;48.142;11.516;2023-08-24T08:12:58;29.30;99.90
1806;DHT22;901;48.142;11.516;2023-08-24T08:15:25;29.40;99.90
1806;DHT22;901;48.142;11.516;2023-08-24T08:17:52;29.50;99.90
1806;DHT22;901;48.142;11.516;2023-08-24T08:20:20;29.60;99.90
1806;DHT22;901;48.142;11.516;2023-08-24T08:22:47;29.70;99.90
1806;DHT22;901;48.142;11.516;2023-08-24T08:25:14;29.80;99.90
1806;DHT22;901;48.142;11.516;2023-08-24T08:27:43;29.80;99.90
1806;DHT22;901;48.142;11.516;2023-08-24T08:30:11;29.90;99.90
1806;DHT22;901;48.142;11.516;2023-08-24T08:32:38;29.90;99.90
1806;DHT22;901;48.142;11.516;2023-08-24T08:35:06;30.00;99.90
1806;DHT22;901;48.142;11.516;2023-08-24T08:37:34;30.10;99.90
1806;DHT22;901;48.142;11.516;2023-08-24T08:40:02;30.10;99.90
1806;DHT22;901;48.142;11.516;2023-08-24T08:42:31;30.00;99.90
1806;DHT22;901;48.142;11.516;2023-08-24T08:44:59;29.90;99.90
1806;DHT22;901;48.142;11.516;2023-08-24T08:47:28;29.80;99.90
1806;DHT22;901;48.142;11.516;2023-08-24T08:49:55;29.80;99.90
1806;DHT22;901;48.142;11.516;2023-08-24T08:52:22;29.90;99.90
1806;DHT22;901;48.142;11.516;2023-08-24T08:54:52;30.00;99.90
1806;DHT22;901;48.142;11.516;2023-08-24T08:57:19;30.10;99.90
1806;DHT22;901;48.142;11.516;2023-08-24T08:59:47;30.00;99.90
1806;DHT22;901;48.142;11.516;2023-08-24T09:02:16;30.10;99.90
1806;DHT22;901;48.142;11.516;2023-08-24T09:04:45;30.00;99.90
1806;DHT22;901;48.142;11.516;2023-08-24T09:07:14;30.10;99.90
1806;DHT22;901;48.142;11.516;2023-08-24T09:09:41;30.30;99.90
1806;DHT22;901;48.142;11.516;2023-08-24T09:12:10;30.30;99.90
1806;DHT22;901;48.142;11.516;2023-08-24T09:14:37;30.10;99.90
1806;DHT22;901;48.142;11.516;2023-08-24T09:17:05;30.10;99.90
1806;DHT22;901;48.142;11.516;2023-08-24T09:19:33;30.20;99.90
1806;DHT22;901;48.142;11.516;2023-08-24T09:22:01;30.30;99.90
1806;DHT22;901;48.142;11.516;2023-08-24T09:24:32;30.50;99.90
1806;DHT22;901;48.142;11.516;2023-08-24T09:26:59;30.60;99.90
1806;DHT22;901;48.142;11.516;2023-08-24T09:29:36;30.90;99.90
1806;DHT22;901;48.142;11.516;2023-08-24T09:32:03;31.30;99.90
1806;DHT22;901;48.142;11.516;2023-08-24T09:34:30;31.60;99.90
1806;DHT22;901;48.142;11.516;2023-08-24T09:36:57;31.80;99.90
1806;DHT22;901;48.142;11.516;2023-08-24T09:39:24;32.10;99.90
1806;DHT22;901;48.142;11.516;2023-08-24T09:41:51;32.40;99.90
1806;DHT22;901;48.142;11.516;2023-08-24T09:44:18;32.50;99.90
1806;DHT22;901;48.142;11.516;2023-08-24T09:46:47;32.30;99.90
1806;DHT22;901;48.142;11.516;2023-08-24T09:49:14;32.30;99.90
1806;DHT22;901;48.142;11.516;2023-08-24T09:51:41;32.50;99.90
1806;DHT22;901;48.142;11.516;2023-08-24T09:54:10;32.40;99.90
1806;DHT22;901;48.142;11.516;2023-08-24T09:56:39;32.50;99.90
1806;DHT22;901;48.142;11.516;2023-08-24T09:59:12;32.50;99.90
1806;DHT22;901;48.142;11.516;2023-08-24T10:01:42;32.40;99.90
1806;DHT22;901;48.142;11.516;2023-08-24T10:04:12;32.30;99.90
1806;DHT22;901;48.142;11.516;2023-08-24T10:06:40;32.40;99.90
1806;DHT22;901;48.142;11.516;2023-08-24T10:09:08;32.40;99.90
1806;DHT22;901;48.142;11.516;2023-08-24T10:11:50;32.30;99.90
1806;DHT22;901;48.142;11.516;2023-08-24T10:14:24;32.30;99.90
1806;DHT22;901;48.142;11.516;2023-08-24T10:16:53;32.40;99.90
1806;DHT22;901;48.142;11.516;2023-08-24T10:19:22;32.60;99.90
1806;DHT22;901;48.142;11.516;2023-08-24T10:21:50;32.50;99.90
1806;DHT22;901;48.142;11.516;2023-08-24T10:24:18;32.60;99.90
1806;DHT22;901;48.142;11.516;2023-08-24T10:26:46;32.70;99.90
1806;DHT22;901;48.142;11.516;2023-08-24T10:29:15;32.80;99.90
1806;DHT22;901;48.142;11.516;2023-08-24T10:31:43;32.80;99.90
1806;DHT22;901;48.142;11.516;2023-08-24T10:34:10;33.00;99.90
1806;DHT22;901;48.142;11.516;2023-08-24T10:36:39;32.90;99.90
1806;DHT22;901;48.142;11.516;2023-08-24T10:39:07;33.00;99.90
1806;DHT22;901;48.142;11.516;2023-08-24T10:41:46;33.10;99.90
1806;DHT22;901;48.142;11.516;2023-08-24T10:44:20;33.10;99.90
1806;DHT22;901;48.142;11.516;2023-08-24T10:47:05;33.20;99.90
1806;DHT22;901;48.142;11.516;2023-08-24T10:49:32;33.00;99.90
1806;DHT22;901;48.142;11.516;2023-08-24T10:52:16;32.90;99.90
1806;DHT22;901;48.142;11.516;2023-08-24T10:54:43;32.80;99.90
1806;DHT22;901;48.142;11.516;2023-08-24T10:57:18;32.80;99.90
1806;DHT22;901;48.142;11.516;2023-08-24T10:59:45;32.70;99.90
1806;DHT22;901;48.142;11.516;2023-08-24T11:02:19;32.60;99.90
1806;DHT22;901;48.142;11.516;2023-08-24T11:05:04;32.60;99.90
1806;DHT22;901;48.142;11.516;2023-08-24T11:07:32;32.50;99.90
1806;DHT22;901;48.142;11.516;2023-08-24T11:09:59;32.50;99.90
1806;DHT22;901;48.142;11.516;2023-08-24T11:13:04;32.70;99.90
1806;DHT22;901;48.142;11.516;2023-08-24T11:15:32;32.80;99.90
1806;DHT22;901;48.142;11.516;2023-08-24T11:18:12;32.70;99.90
1806;DHT22;901;48.142;11.516;2023-08-24T11:20:41;32.70;99.90
1806;DHT22;901;48.142;11.516;2023-08-24T11:23:10;32.70;99.90
1806;DHT22;901;48.142;11.516;2023-08-24T11:25:37;32.80;99.90
1806;DHT22;901;48.142;11.516;2023-08-24T11:28:04;32.90;99.90
1806;DHT22;901;48.142;11.516;2023-08-24T11:30:31;32.90;99.90
1806;DHT22;901;48.142;11.516;2023-08-24T11:32:58;33.10;99.90
1806;DHT22;901;48.142;11.516;2023-08-24T11:35:26;33.20;99.90
1806;DHT22;901;48.142;11.516;2023-08-24T11:37:53;33.20;99.90
1806;DHT22;901;48.142;11.516;2023-08-24T11:40:21;33.40;99.90
1806;DHT22;901;48.142;11.516;2023-08-24T11:42:53;33.60;99.90
1806;DHT22;901;48.142;11.516;2023-08-24T11:45:20;33.70;99.90
1806;DHT22;901;48.142;11.516;2023-08-24T11:47:48;33.70;99.90
1806;DHT22;901;48.142;11.516;2023-08-24T11:50:15;33.70;99.90
1806;DHT22;901;48.142;11.516;2023-08-24T11:52:43;33.80;99.90
1806;DHT22;901;48.142;11.516;2023-08-24T11:55:10;33.90;98.90
1806;DHT22;901;48.142;11.516;2023-08-24T11:57:39;33.90;98.80
1806;DHT22;901;48.142;11.516;2023-08-24T12:00:07;33.90;99.90
1806;DHT22;901;48.142;11.516;2023-08-24T12:02:34;33.90;99.10
1806;DHT22;901;48.142;11.516;2023-08-24T12:05:06;33.90;98.10
1806;DHT22;901;48.142;11.516;2023-08-24T12:07:33;34.00;97.90
1806;DHT22;901;48.142;11.516;2023-08-24T12:10:00;34.00;98.60
1806;DHT22;901;48.142;11.516;2023-08-24T12:12:28;34.10;99.90
1806;DHT22;901;48.142;11.516;2023-08-24T12:14:56;34.30;98.70
1806;DHT22;901;48.142;11.516;2023-08-24T12:17:24;34.20;98.20
1806;DHT22;901;48.142;11.516;2023-08-24T12:20:00;34.20;98.30
1806;DHT22;901;48.142;11.516;2023-08-24T12:22:31;34.10;97.30
1806;DHT22;901;48.142;11.516;2023-08-24T12:24:59;34.00;95.90
1806;DHT22;901;48.142;11.516;2023-08-24T12:27:26;34.10;97.00
1806;DHT22;901;48.142;11.516;2023-08-24T12:29:53;34.30;95.90
1806;DHT22;901;48.142;11.516;2023-08-24T12:32:21;34.30;94.90
1806;DHT22;901;48.142;11.516;2023-08-24T12:34:50;34.20;93.70
1806;DHT22;901;48.142;11.516;2023-08-24T12:37:18;34.20;94.90
1806;DHT22;901;48.142;11.516;2023-08-24T12:39:44;34.30;93.80
1806;DHT22;901;48.142;11.516;2023-08-24T12:42:11;34.30;94.30
1806;DHT22;901;48.142;11.516;2023-08-24T12:44:38;34.40;94.40
1806;DHT22;901;48.142;11.516;2023-08-24T12:47:05;34.50;92.20
1806;DHT22;901;48.142;11.516;2023-08-24T12:49:33;34.50;93.10
1806;DHT22;901;48.142;11.516;2023-08-24T12:52:00;34.40;93.70
1806;DHT22;901;48.142;11.516;2023-08-24T12:54:27;34.30;93.10
1806;DHT22;901;48.142;11.516;2023-08-24T12:56:54;34.40;93.40
1806;DHT22;901;48.142;11.516;2023-08-24T12:59:21;34.40;94.60
1806;DHT22;901;48.142;11.516;2023-08-24T13:01:48;34.50;93.50
1806;DHT22;901;48.142;11.516;2023-08-24T13:04:15;34.60;93.60
1806;DHT22;901;48.142;11.516;2023-08-24T13:06:43;34.60;94.00
1806;DHT22;901;48.142;11.516;2023-08-24T13:09:10;34.70;92.80
1806;DHT22;901;48.142;11.516;2023-08-24T13:11:37;34.70;93.40
1806;DHT22;901;48.142;11.516;2023-08-24T13:14:04;34.80;93.80
1806;DHT22;901;48.142;11.516;2023-08-24T13:16:31;34.80;93.60
1806;DHT22;901;48.142;11.516;2023-08-24T13:18:58;35.00;93.30
1806;DHT22;901;48.142;11.516;2023-08-24T13:21:25;35.10;93.50
1806;DHT22;901;48.142;11.516;2023-08-24T13:23:54;35.20;93.30
1806;DHT22;901;48.142;11.516;2023-08-24T13:26:21;35.30;93.70
1806;DHT22;901;48.142;11.516;2023-08-24T13:28:49;35.40;94.10
1806;DHT22;901;48.142;11.516;2023-08-24T13:31:16;35.60;94.00
1806;DHT22;901;48.142;11.516;2023-08-24T13:33:43;35.60;93.80
1806;DHT22;901;48.142;11.516;2023-08-24T13:36:10;35.60;93.90
1806;DHT22;901;48.142;11.516;2023-08-24T13:38:37;35.70;93.90
1806;DHT22;901;48.142;11.516;2023-08-24T13:41:05;35.70;93.50
1806;DHT22;901;48.142;11.516;2023-08-24T13:43:32;35.80;93.30
1806;DHT22;901;48.142;11.516;2023-08-24T13:46:00;35.80;93.50
1806;DHT22;901;48.142;11.516;2023-08-24T13:48:26;35.80;93.40
1806;DHT22;901;48.142;11.516;2023-08-24T13:50:55;35.70;93.30
1806;DHT22;901;48.142;11.516;2023-08-24T13:53:22;35.80;93.00
1806;DHT22;901;48.142;11.516;2023-08-24T13:55:49;35.90;92.90
1806;DHT22;901;48.142;11.516;2023-08-24T13:58:17;35.90;93.20
1806;DHT22;901;48.142;11.516;2023-08-24T14:00:44;36.00;93.30
1806;DHT22;901;48.142;11.516;2023-08-24T14:03:11;35.90;93.20
1806;DHT22;901;48.142;11.516;2023-08-24T14:05:39;35.80;93.30
1806;DHT22;901;48.142;11.516;2023-08-24T14:08:06;35.80;93.70
1806;DHT22;901;48.142;11.516;2023-08-24T14:10:34;35.80;94.20
1806;DHT22;901;48.142;11.516;2023-08-24T14:13:01;35.60;94.10
1806;DHT22;901;48.142;11.516;2023-08-24T14:15:30;35.60;93.60
1806;DHT22;901;48.142;11.516;2023-08-24T14:17:57;35.60;93.40
1806;DHT22;901;48.142;11.516;2023-08-24T14:20:23;35.60;94.00
1806;DHT22;901;48.142;11.516;2023-08-24T14:22:50;35.50;94.30
1806;DHT22;901;48.142;11.516;2023-08-24T14:25:17;35.30;93.90
1806;DHT22;901;48.142;11.516;2023-08-24T14:27:44;35.20;93.60
1806;DHT22;901;48.142;11.516;2023-08-24T14:30:12;35.20;93.10
1806;DHT22;901;48.142;11.516;2023-08-24T14:32:40;35.10;93.60
1806;DHT22;901;48.142;11.516;2023-08-24T14:35:08;35.00;93.30
1806;DHT22;901;48.142;11.516;2023-08-24T14:37:35;35.00;93.30
1806;DHT22;901;48.142;11.516;2023-08-24T14:40:04;35.00;93.00
1806;DHT22;901;48.142;11.516;2023-08-24T14:42:31;35.20;93.00
1806;DHT22;901;48.142;11.516;2023-08-24T14:44:58;35.30;93.20
1806;DHT22;901;48.142;11.516;2023-08-24T14:47:25;35.50;92.90
1806;DHT22;901;48.142;11.516;2023-08-24T14:49:53;35.60;93.20
1806;DHT22;901;48.142;11.516;2023-08-24T14:52:20;35.70;93.20
1806;DHT22;901;48.142;11.516;2023-08-24T14:54:47;35.80;93.50
1806;DHT22;901;48.142;11.516;2023-08-24T14:57:13;35.70;93.40
1806;DHT22;901;48.142;11.516;2023-08-24T14:59:40;35.70;93.30
1806;DHT22;901;48.142;11.516;2023-08-24T15:02:07;35.60;92.70
1806;DHT22;901;48.142;11.516;2023-08-24T15:04:34;35.70;93.00
1806;DHT22;901;48.142;11.516;2023-08-24T15:07:03;35.90;93.50
1806;DHT22;901;48.142;11.516;2023-08-24T15:09:30;36.10;93.60
1806;DHT22;901;48.142;11.516;2023-08-24T15:11:57;36.10;93.40
1806;DHT22;901;48.142;11.516;2023-08-24T15:14:27;36.10;93.60
1806;DHT22;901;48.142;11.516;2023-08-24T15:16:54;36.10;93.50
1806;DHT22;901;48.142;11.516;2023-08-24T15:19:21;36.00;93.40
1806;DHT22;901;48.142;11.516;2023-08-24T15:21:48;36.00;90.40
1806;DHT22;901;48.142;11.516;2023-08-24T15:24:16;36.10;90.30
1806;DHT22;901;48.142;11.516;2023-08-24T15:26:43;36.20;92.10
1806;DHT22;901;48.142;11.516;2023-08-24T15:29:12;36.20;92.20
1806;DHT22;901;48.142;11.516;2023-08-24T15:31:41;36.20;92.30
1806;DHT22;901;48.142;11.516;2023-08-24T15:34:08;36.20;92.80
1806;DHT22;901;48.142;11.516;2023-08-24T15:36:34;36.20;92.80
1806;DHT22;901;48.142;11.516;2023-08-24T15:39:01;36.20;92.70
1806;DHT22;901;48.142;11.516;2023-08-24T15:41:30;36.20;91.00
1806;DHT22;901;48.142;11.516;2023-08-24T15:43:57;36.10;90.60
1806;DHT22;901;48.142;11.516;2023-08-24T15:46:24;36.10;89.90
1806;DHT22;901;48.142;11.516;2023-08-24T15:48:51;36.10;93.00
1806;DHT22;901;48.142;11.516;2023-08-24T15:51:21;36.00;94.30
1806;DHT22;901;48.142;11.516;2023-08-24T15:53:48;35.70;94.90
1806;DHT22;901;48.142;11.516;2023-08-24T15:56:15;35.40;95.50
1806;DHT22;901;48.142;11.516;2023-08-24T15:58:43;35.00;96.10
1806;DHT22;901;48.142;11.516;2023-08-24T16:01:11;34.80;96.90
1806;DHT22;901;48.142;11.516;2023-08-24T16:03:38;34.70;97.00
1806;DHT22;901;48.142;11.516;2023-08-24T16:06:05;34.70;94.50